Terminal Aerodrome Forecast
Issued by NWS Huntsville, AL

Home | Current Version | Previous Version | Text Only | Print | Product List | Glossary On
Versions: 1 2 3 4 5 6 7 8 9 10 11 12 13 14 15 16 17 18 19 20 21 22 23 24 25 26 27 28 29 30 31 32
000
FTUS44 KHUN 191320 AAA
TAFMSL
TAF AMD
KMSL 191320Z 1913/2012 34008G14KT P6SM SCT035
      TEMPO 1913/1917 BKN035
     FM191800 36012G18KT P6SM SCT040
     FM200200 01007KT P6SM SKC
     FM200600 03004KT P6SM SKC=

USA.gov is the U.S. government's official web portal to all federal, state and local government web resources and services.